createdAt,value
2018-11-12T00:00:34.925Z,69.10
2018-11-12T00:03:03.881Z,70.00
2018-11-12T00:05:32.426Z,70.10
2018-11-12T00:08:01.635Z,70.60
2018-11-12T00:10:31.041Z,71.20
2018-11-12T00:12:59.589Z,69.40
2018-11-12T00:15:28.125Z,70.10
2018-11-12T00:17:56.614Z,69.50
2018-11-12T00:20:25.368Z,70.10
2018-11-12T00:22:54.213Z,70.70
2018-11-12T00:25:22.988Z,69.50
2018-11-12T00:27:51.481Z,70.50
2018-11-12T00:30:20.189Z,69.70
2018-11-12T00:32:48.976Z,69.30
2018-11-12T00:35:17.666Z,69.10
2018-11-12T00:37:46.424Z,69.00
2018-11-12T00:40:16.092Z,68.90
2018-11-12T00:42:44.892Z,68.30
2018-11-12T00:45:13.943Z,67.70
2018-11-12T00:47:42.630Z,68.00
2018-11-12T00:50:12.815Z,68.10
2018-11-12T00:52:42.486Z,68.40
2018-11-12T00:55:13.766Z,68.00
2018-11-12T00:57:42.617Z,67.80
2018-11-12T01:00:14.177Z,67.60
2018-11-12T01:02:50.252Z,67.10
2018-11-12T01:05:19.566Z,67.00
2018-11-12T01:07:48.417Z,66.90
2018-11-12T01:10:18.282Z,66.30
2018-11-12T01:12:47.477Z,66.40
2018-11-12T01:15:17.365Z,66.40
2018-11-12T01:17:46.903Z,67.00
2018-11-12T01:20:16.196Z,66.30
2018-11-12T01:22:46.386Z,66.90
2018-11-12T01:25:15.650Z,66.70
2018-11-12T01:27:44.512Z,67.40
2018-11-12T01:30:15.441Z,67.30
2018-11-12T01:32:44.440Z,67.10
2018-11-12T01:35:14.639Z,67.30
2018-11-12T01:37:44.007Z,67.30
2018-11-12T01:40:14.390Z,67.30
2018-11-12T01:42:43.873Z,66.90
2018-11-12T01:45:15.077Z,66.90
2018-11-12T01:47:50.716Z,67.00
2018-11-12T01:50:19.777Z,67.50
2018-11-12T01:52:49.603Z,68.20
2018-11-12T01:55:19.083Z,67.70
2018-11-12T01:57:48.518Z,68.00
2018-11-12T02:00:18.522Z,68.00
2018-11-12T02:02:48.579Z,68.40
2018-11-12T02:05:17.483Z,68.10
2018-11-12T02:07:46.240Z,68.70
2018-11-12T02:10:21.629Z,68.70
2018-11-12T02:12:50.568Z,68.80
2018-11-12T02:15:20.177Z,69.00
2018-11-12T02:17:49.425Z,69.40
2018-11-12T02:20:21.094Z,69.70
2018-11-12T02:22:50.283Z,69.70
2018-11-12T02:25:19.331Z,69.00
2018-11-12T02:27:47.797Z,68.90
2018-11-12T02:30:23.107Z,69.80
2018-11-12T02:32:51.736Z,71.60
2018-11-12T02:35:20.219Z,71.40
2018-11-12T02:37:49.117Z,72.50
2018-11-12T02:40:17.886Z,71.30
2018-11-12T02:42:47.145Z,72.00
2018-11-12T02:45:16.131Z,71.90
2018-11-12T02:47:44.861Z,71.90
2018-11-12T02:50:15.739Z,72.20
2018-11-12T02:52:44.791Z,73.00
2018-11-12T02:55:14.363Z,73.70
2018-11-12T02:57:44.621Z,73.90
2018-11-12T03:00:16.656Z,74.10
2018-11-12T03:02:45.760Z,74.60
2018-11-12T03:05:14.561Z,75.20
2018-11-12T03:07:43.650Z,75.70
2018-11-12T03:10:18.502Z,75.80
2018-11-12T03:12:50.529Z,76.70
2018-11-12T03:17:53.346Z,75.80
2018-11-12T03:20:24.554Z,76.80
2018-11-12T03:22:55.882Z,77.20
2018-11-12T03:25:24.695Z,76.80
2018-11-12T03:27:55.677Z,76.60
2018-11-12T03:30:27.094Z,77.20
2018-11-12T03:32:57.787Z,77.20
2018-11-12T03:35:26.758Z,78.30
2018-11-12T03:37:56.097Z,78.40
2018-11-12T03:40:24.694Z,78.10
2018-11-12T03:42:53.309Z,78.40
2018-11-12T03:45:24.596Z,78.20
2018-11-12T03:47:54.163Z,78.60
2018-11-12T03:50:24.779Z,77.10
2018-11-12T03:52:53.248Z,78.30
2018-11-12T03:55:22.482Z,79.10
2018-11-12T03:57:51.946Z,78.90
2018-11-12T04:00:26.981Z,78.00
2018-11-12T04:02:55.951Z,74.40
2018-11-12T04:05:26.158Z,75.30
2018-11-12T04:07:56.314Z,76.40
2018-11-12T04:10:24.916Z,73.90
2018-11-12T04:12:53.718Z,74.60
2018-11-12T04:15:26.950Z,75.50
2018-11-12T04:17:55.424Z,76.00
2018-11-12T04:20:24.840Z,73.60
2018-11-12T04:23:01.099Z,74.60
2018-11-12T04:25:31.565Z,70.20
2018-11-12T04:28:00.275Z,70.80
2018-11-12T04:30:28.795Z,70.80
2018-11-12T04:32:57.234Z,70.50
2018-11-12T04:35:25.791Z,70.80
2018-11-12T04:37:54.270Z,71.00
2018-11-12T04:40:23.873Z,73.10
2018-11-12T04:42:52.764Z,74.10
2018-11-12T04:45:23.237Z,74.90
2018-11-12T04:47:53.650Z,75.50
2018-11-12T04:50:25.071Z,76.40
2018-11-12T04:52:54.372Z,76.30
2018-11-12T04:55:24.027Z,76.80
2018-11-12T04:57:53.150Z,76.90
2018-11-12T05:00:26.873Z,77.70
2018-11-12T05:02:55.511Z,78.30
2018-11-12T05:05:25.192Z,77.60
2018-11-12T05:07:53.686Z,78.10
2018-11-12T05:10:23.720Z,75.20
2018-11-12T05:12:53.942Z,77.30
2018-11-12T05:15:23.587Z,75.90
2018-11-12T05:17:52.403Z,76.30
2018-11-12T05:20:22.352Z,77.20
2018-11-12T05:22:51.263Z,77.90
2018-11-12T05:25:20.174Z,78.40
2018-11-12T05:27:48.694Z,77.70
2018-11-12T05:30:26.176Z,77.00
2018-11-12T05:32:55.716Z,78.20
2018-11-12T05:35:26.680Z,78.90
2018-11-12T05:37:56.140Z,78.10
2018-11-12T05:40:26.900Z,78.30
2018-11-12T05:42:56.228Z,78.50
2018-11-12T05:45:26.173Z,78.20
2018-11-12T05:47:54.925Z,77.50
2018-11-12T05:50:26.703Z,76.70
2018-11-12T05:52:57.193Z,77.30
2018-11-12T05:57:56.636Z,77.30
2018-11-12T06:00:27.716Z,78.00
2018-11-12T06:02:56.213Z,77.10
2018-11-12T06:05:24.839Z,77.10
2018-11-12T06:07:53.661Z,77.50
2018-11-12T06:10:23.728Z,77.40
2018-11-12T06:12:52.387Z,77.60
2018-11-12T06:15:20.855Z,77.70
2018-11-12T06:17:50.960Z,77.50
2018-11-12T06:20:21.468Z,79.10
2018-11-12T06:22:50.093Z,79.90
2018-11-12T06:25:20.389Z,78.60
2018-11-12T06:27:49.068Z,77.70
2018-11-12T06:30:18.923Z,77.80
2018-11-12T06:32:47.737Z,78.10
2018-11-12T06:35:17.019Z,76.50
2018-11-12T06:37:46.480Z,77.00
2018-11-12T06:40:16.611Z,77.20
2018-11-12T06:42:45.179Z,77.60
2018-11-12T06:45:16.510Z,77.20
2018-11-12T06:47:46.068Z,76.80
2018-11-12T06:50:16.243Z,76.80
2018-11-12T06:52:45.309Z,76.30
2018-11-12T06:55:15.773Z,76.20
2018-11-12T07:00:27.232Z,74.80
2018-11-12T07:02:55.923Z,75.20
2018-11-12T07:05:25.506Z,75.10
2018-11-12T07:07:54.465Z,75.10
2018-11-12T07:10:24.585Z,74.40
2018-11-12T07:13:09.859Z,74.60
2018-11-12T07:15:54.399Z,74.70
2018-11-12T07:18:28.785Z,74.80
2018-11-12T07:20:57.268Z,74.50
2018-11-12T07:23:25.669Z,74.20
2018-11-12T07:25:54.255Z,73.80
2018-11-12T07:28:23.464Z,73.80
2018-11-12T07:30:52.395Z,72.80
2018-11-12T07:33:21.101Z,72.60
2018-11-12T07:35:49.828Z,72.30
2018-11-12T07:38:18.638Z,71.80
2018-11-12T07:40:47.085Z,71.60
2018-11-12T07:43:15.533Z,71.30
2018-11-12T07:45:44.079Z,71.40
2018-11-12T07:48:13.022Z,70.80
2018-11-12T07:50:42.218Z,70.40
2018-11-12T07:53:11.304Z,68.50
2018-11-12T07:55:40.124Z,69.00
2018-11-12T07:58:08.662Z,68.30
2018-11-12T08:00:37.237Z,67.50
2018-11-12T08:03:07.217Z,66.50
2018-11-12T08:05:36.363Z,66.10
2018-11-12T08:08:05.842Z,65.20
2018-11-12T08:10:34.602Z,65.90
2018-11-12T08:13:03.239Z,64.80
2018-11-12T08:15:32.180Z,63.50
2018-11-12T08:18:00.793Z,63.70
2018-11-12T08:20:29.423Z,62.20
2018-11-12T08:22:57.904Z,61.70
2018-11-12T08:25:27.361Z,61.30
2018-11-12T08:27:55.919Z,61.20
2018-11-12T08:30:27.396Z,60.70
2018-11-12T08:32:57.737Z,60.60
2018-11-12T08:35:27.302Z,58.60
2018-11-12T08:37:56.518Z,58.80
2018-11-12T08:40:26.510Z,57.20
2018-11-12T08:42:55.640Z,55.60
2018-11-12T08:45:24.270Z,54.30
2018-11-12T08:47:54.360Z,53.90
2018-11-12T08:50:24.434Z,53.80
2018-11-12T08:52:54.107Z,53.20
2018-11-12T08:55:23.970Z,53.40
2018-11-12T08:57:54.286Z,52.70
2018-11-12T09:00:23.888Z,52.10
2018-11-12T09:02:53.095Z,51.60
2018-11-12T09:05:23.037Z,51.30
2018-11-12T09:07:54.279Z,52.60
2018-11-12T09:13:05.151Z,51.80
2018-11-12T09:15:33.798Z,52.40
2018-11-12T09:18:03.034Z,52.80
2018-11-12T09:20:31.878Z,52.70
2018-11-12T09:23:00.380Z,52.90
2018-11-12T09:25:29.805Z,52.50
2018-11-12T09:27:58.211Z,51.30
2018-11-12T09:30:29.532Z,51.50
2018-11-12T09:33:05.579Z,50.20
2018-11-12T09:35:34.117Z,49.30
2018-11-12T09:38:03.680Z,46.90
2018-11-12T09:40:35.145Z,47.30
2018-11-12T09:43:03.998Z,47.50
2018-11-12T09:45:33.057Z,47.70
2018-11-12T09:48:02.015Z,47.20
2018-11-12T09:50:30.836Z,48.40
2018-11-12T09:55:30.065Z,47.00
2018-11-12T09:58:01.320Z,49.70
2018-11-12T10:00:30.063Z,48.40
2018-11-12T10:02:59.838Z,48.70
2018-11-12T10:05:29.575Z,48.80
2018-11-12T10:08:02.163Z,48.10
2018-11-12T10:10:49.670Z,47.20
2018-11-12T10:13:26.216Z,47.20
2018-11-12T10:15:53.185Z,46.40
2018-11-12T10:18:19.759Z,47.10
2018-11-12T10:20:48.307Z,47.70
2018-11-12T10:23:18.648Z,48.10
2018-11-12T10:25:47.183Z,48.80
2018-11-12T10:28:16.477Z,49.40
2018-11-12T10:30:44.946Z,48.60
2018-11-12T10:33:13.405Z,49.10
2018-11-12T10:35:41.947Z,48.90
2018-11-12T10:38:10.471Z,49.60
2018-11-12T10:40:39.227Z,49.00
2018-11-12T10:43:08.104Z,49.00
2018-11-12T10:45:37.715Z,48.90
2018-11-12T10:48:07.050Z,49.50
2018-11-12T10:50:35.950Z,49.40
2018-11-12T10:53:05.062Z,47.10
2018-11-12T10:55:34.490Z,48.30
2018-11-12T11:00:39.130Z,49.30
2018-11-12T11:03:18.172Z,49.00
2018-11-12T11:05:48.291Z,49.60
2018-11-12T11:08:17.234Z,50.20
2018-11-12T11:10:46.691Z,50.20
2018-11-12T11:13:15.171Z,49.60
2018-11-12T11:15:43.752Z,50.10
2018-11-12T11:18:12.237Z,48.40
2018-11-12T11:20:40.737Z,48.20
2018-11-12T11:23:10.221Z,47.00
2018-11-12T11:25:38.692Z,46.90
2018-11-12T11:28:07.131Z,46.00
2018-11-12T11:33:03.979Z,46.00
2018-11-12T11:35:32.617Z,45.80
2018-11-12T11:38:02.108Z,44.80
2018-11-12T11:42:59.550Z,44.40
2018-11-12T11:45:28.253Z,45.40
2018-11-12T11:50:26.632Z,44.50
2018-11-12T11:52:55.769Z,45.00
2018-11-12T11:55:24.959Z,44.90
2018-11-12T11:57:54.214Z,45.00
2018-11-12T12:00:24.661Z,45.00
2018-11-12T12:02:55.024Z,45.00
2018-11-12T12:05:24.310Z,44.40
2018-11-12T12:07:54.032Z,45.00
2018-11-12T12:12:52.509Z,44.40
2018-11-12T12:15:23.000Z,45.00
2018-11-12T12:17:52.301Z,45.20
2018-11-12T12:20:22.798Z,44.90
2018-11-12T12:22:51.731Z,44.40
2018-11-12T12:25:21.078Z,45.00
2018-11-12T12:27:50.558Z,45.30
2018-11-12T12:30:24.035Z,45.00
2018-11-12T12:32:53.716Z,43.40
2018-11-12T12:35:22.525Z,43.90
2018-11-12T12:37:51.057Z,44.40
2018-11-12T12:40:21.093Z,44.60
2018-11-12T12:42:50.229Z,44.40
2018-11-12T12:45:21.187Z,45.30
2018-11-12T12:47:49.933Z,44.40
2018-11-12T12:50:19.184Z,44.70
2018-11-12T12:52:47.686Z,44.40
2018-11-12T12:55:17.174Z,44.80
2018-11-12T12:57:45.938Z,43.60
2018-11-12T13:00:17.331Z,44.60
2018-11-12T13:02:46.055Z,44.30
2018-11-12T13:05:14.445Z,44.40
2018-11-12T13:07:43.004Z,45.00
2018-11-12T13:10:12.841Z,45.00
2018-11-12T13:12:41.633Z,45.00
2018-11-12T13:15:13.752Z,44.90
2018-11-12T13:17:43.232Z,45.20
2018-11-12T13:20:14.682Z,45.00
2018-11-12T13:22:44.218Z,45.20
2018-11-12T13:25:12.743Z,45.10
2018-11-12T13:27:41.774Z,44.90
2018-11-12T13:30:14.293Z,44.30
2018-11-12T13:32:43.762Z,40.60
2018-11-12T13:35:13.970Z,41.10
2018-11-12T13:37:43.223Z,34.00
2018-11-12T13:40:15.409Z,31.70
2018-11-12T13:42:45.660Z,31.90
2018-11-12T13:45:14.239Z,30.30
2018-11-12T13:47:43.631Z,29.80
2018-11-12T13:50:16.246Z,29.00
2018-11-12T13:52:45.809Z,28.00
2018-11-12T13:55:15.312Z,28.30
2018-11-12T13:57:44.031Z,26.40
2018-11-12T14:00:17.728Z,27.10
2018-11-12T14:02:47.688Z,27.50
2018-11-12T14:05:18.156Z,28.40
2018-11-12T14:07:47.314Z,29.30
2018-11-12T14:10:17.509Z,30.00
2018-11-12T14:12:46.911Z,29.30
2018-11-12T14:15:18.013Z,29.30
2018-11-12T14:17:47.246Z,30.60
2018-11-12T14:20:16.237Z,31.60
2018-11-12T14:22:44.691Z,32.70
2018-11-12T14:25:15.578Z,33.40
2018-11-12T14:27:45.494Z,34.10
2018-11-12T14:30:15.601Z,31.10
2018-11-12T14:32:44.959Z,31.30
2018-11-12T14:35:14.241Z,30.10
2018-11-12T14:37:44.246Z,34.30
2018-11-12T14:40:14.411Z,34.90
2018-11-12T14:42:44.133Z,38.10
2018-11-12T14:45:14.955Z,35.20
2018-11-12T14:47:44.037Z,35.90
2018-11-12T14:50:11.976Z,34.70
2018-11-12T14:52:48.008Z,35.30
2018-11-12T14:55:17.333Z,35.60
2018-11-12T14:57:46.149Z,37.20
2018-11-12T15:00:18.349Z,41.40
2018-11-12T15:02:46.982Z,41.90
2018-11-12T15:05:16.997Z,43.80
2018-11-12T15:07:52.375Z,45.70
2018-11-12T15:12:50.136Z,46.80
2018-11-12T15:15:18.643Z,47.20
2018-11-12T15:17:47.228Z,48.50
2018-11-12T15:20:18.123Z,47.80
2018-11-12T15:22:47.095Z,48.50
2018-11-12T15:25:19.252Z,47.90
2018-11-12T15:27:47.928Z,48.50
2018-11-12T15:30:18.610Z,49.30
2018-11-12T15:32:48.559Z,49.20
2018-11-12T15:35:17.004Z,50.00
2018-11-12T15:40:15.738Z,49.40
2018-11-12T15:42:44.684Z,50.50
2018-11-12T15:45:16.902Z,51.20
2018-11-12T15:47:46.403Z,51.50
2018-11-12T15:50:22.689Z,51.60
2018-11-12T15:52:51.600Z,51.90
2018-11-12T15:55:21.326Z,52.00
2018-11-12T15:57:50.296Z,53.10
2018-11-12T16:00:19.155Z,53.40
2018-11-12T16:02:48.048Z,53.30
2018-11-12T16:05:16.855Z,50.70
2018-11-12T16:10:22.503Z,50.30
2018-11-12T16:12:51.407Z,50.60
2018-11-12T16:15:20.970Z,50.50
2018-11-12T16:17:49.850Z,50.70
2018-11-12T16:20:24.625Z,50.90
2018-11-12T16:22:55.554Z,51.30
2018-11-12T16:25:25.691Z,51.40
2018-11-12T16:27:54.819Z,51.50
2018-11-12T16:30:23.770Z,52.00
2018-11-12T16:32:52.469Z,51.90
2018-11-12T16:35:23.570Z,51.20
2018-11-12T16:37:54.134Z,51.60
2018-11-12T16:40:23.230Z,51.10
2018-11-12T16:42:51.771Z,51.10
2018-11-12T16:45:20.315Z,51.30
2018-11-12T16:47:49.205Z,51.80
2018-11-12T16:50:18.468Z,51.60
2018-11-12T16:52:48.041Z,51.80
2018-11-12T16:57:50.012Z,52.00
2018-11-12T17:00:20.056Z,52.50
2018-11-12T17:02:50.237Z,52.40
2018-11-12T17:05:21.915Z,52.50
2018-11-12T17:07:50.696Z,53.10
2018-11-12T17:10:20.461Z,53.20
2018-11-12T17:12:49.949Z,53.60
2018-11-12T17:15:18.414Z,53.30
2018-11-12T17:17:47.844Z,53.50
2018-11-12T17:20:18.377Z,53.50
2018-11-12T17:22:46.894Z,54.10
2018-11-12T17:25:16.128Z,53.40
2018-11-12T17:27:46.558Z,53.40
2018-11-12T17:30:18.858Z,53.60
2018-11-12T17:32:49.147Z,54.00
2018-11-12T17:37:48.396Z,54.00
2018-11-12T17:40:22.240Z,54.40
2018-11-12T17:42:51.715Z,54.90
2018-11-12T17:45:22.573Z,54.60
2018-11-12T17:47:53.245Z,55.20
2018-11-12T17:50:23.460Z,55.10
2018-11-12T17:52:54.384Z,55.30
2018-11-12T17:55:25.940Z,55.40
2018-11-12T17:57:55.362Z,55.20
2018-11-12T18:00:27.093Z,55.90
2018-11-12T18:02:56.516Z,55.30
2018-11-12T18:05:25.703Z,55.00
2018-11-12T18:07:54.738Z,55.50
2018-11-12T18:10:24.064Z,55.40
2018-11-12T18:12:54.565Z,55.00
2018-11-12T18:15:24.205Z,55.30
2018-11-12T18:17:53.796Z,55.40
2018-11-12T18:22:55.322Z,56.00
2018-11-12T18:25:24.408Z,56.80
2018-11-12T18:27:54.894Z,57.30
2018-11-12T18:30:25.651Z,55.10
2018-11-12T18:32:56.527Z,55.20
2018-11-12T18:35:25.947Z,54.80
2018-11-12T18:37:56.055Z,54.60
2018-11-12T18:40:26.680Z,55.10
2018-11-12T18:43:11.422Z,55.00
2018-11-12T18:45:41.614Z,55.40
2018-11-12T18:48:10.985Z,55.70
2018-11-12T18:50:40.694Z,56.20
2018-11-12T18:53:09.312Z,56.40
2018-11-12T18:55:38.404Z,56.30
2018-11-12T18:58:08.698Z,56.80
2018-11-12T19:03:07.361Z,56.70
2018-11-12T19:05:35.862Z,57.60
2018-11-12T19:08:05.358Z,57.20
2018-11-12T19:10:34.885Z,57.40
2018-11-12T19:15:36.557Z,57.40
2018-11-12T19:18:09.106Z,58.10
2018-11-12T19:20:38.225Z,57.90
2018-11-12T19:23:07.203Z,58.40
2018-11-12T19:25:36.537Z,57.40
2018-11-12T19:28:05.205Z,57.90
2018-11-12T19:30:33.810Z,57.10
2018-11-12T19:33:03.301Z,57.50
2018-11-12T19:35:32.635Z,57.70
2018-11-12T19:38:02.054Z,57.90
2018-11-12T19:40:31.969Z,57.80
2018-11-12T19:43:01.773Z,58.30
2018-11-12T19:45:30.349Z,59.00
2018-11-12T19:47:59.593Z,59.40
2018-11-12T19:50:29.327Z,60.30
2018-11-12T19:52:59.002Z,60.20
2018-11-12T19:57:56.950Z,60.80
2018-11-12T20:00:27.375Z,61.30
2018-11-12T20:02:57.266Z,62.00
2018-11-12T20:05:27.129Z,62.20
2018-11-12T20:07:57.235Z,62.20
2018-11-12T20:10:26.581Z,62.30
2018-11-12T20:15:24.699Z,62.70
2018-11-12T20:17:55.198Z,63.30
2018-11-12T20:20:28.123Z,64.40
2018-11-12T20:25:26.588Z,64.00
2018-11-12T20:27:55.885Z,64.90
2018-11-12T20:30:31.764Z,65.10
2018-11-12T20:33:01.407Z,65.50
2018-11-12T20:35:30.720Z,65.70
2018-11-12T20:38:00.291Z,65.90
2018-11-12T20:40:28.872Z,66.00
2018-11-12T20:42:57.951Z,65.90
2018-11-12T20:45:26.729Z,66.70
2018-11-12T20:47:56.318Z,68.10
2018-11-12T20:50:26.243Z,67.70
2018-11-12T20:55:25.153Z,66.70
2018-11-12T20:57:53.941Z,67.70
2018-11-12T21:00:25.710Z,67.80
2018-11-12T21:02:54.868Z,68.00
2018-11-12T21:05:24.839Z,67.00
2018-11-12T21:07:53.291Z,67.60
2018-11-12T21:10:22.101Z,67.30
2018-11-12T21:12:50.859Z,67.70
2018-11-12T21:15:21.360Z,68.40
2018-11-12T21:17:50.556Z,68.50
2018-11-12T21:20:26.500Z,69.20
2018-11-12T21:22:55.717Z,69.20
2018-11-12T21:25:26.267Z,69.40
2018-11-12T21:27:55.356Z,68.60
2018-11-12T21:30:25.240Z,69.30
2018-11-12T21:32:54.527Z,69.00
2018-11-12T21:35:23.684Z,68.80
2018-11-12T21:37:54.056Z,69.00
2018-11-12T21:40:27.249Z,68.00
2018-11-12T21:42:56.080Z,68.60
2018-11-12T21:45:25.927Z,68.10
2018-11-12T21:47:54.616Z,68.60
2018-11-12T21:52:54.407Z,68.10
2018-11-12T21:55:23.462Z,68.60
2018-11-12T21:57:51.959Z,69.80
2018-11-12T22:00:22.813Z,68.50
2018-11-12T22:02:56.890Z,68.30
2018-11-12T22:05:26.610Z,67.90
2018-11-12T22:07:55.479Z,68.50
2018-11-12T22:10:23.979Z,68.20
2018-11-12T22:12:53.070Z,67.70
2018-11-12T22:15:21.691Z,67.60
2018-11-12T22:17:50.161Z,67.50
2018-11-12T22:20:23.365Z,68.10
2018-11-12T22:22:53.576Z,68.20
2018-11-12T22:25:24.450Z,67.20
2018-11-12T22:27:54.196Z,67.20
2018-11-12T22:30:24.411Z,67.20
2018-11-12T22:32:54.159Z,67.80
2018-11-12T22:35:22.667Z,67.20
2018-11-12T22:37:51.220Z,67.90
2018-11-12T22:40:20.545Z,67.80
2018-11-12T22:42:50.768Z,67.60
2018-11-12T22:45:21.473Z,68.30
2018-11-12T22:47:50.663Z,68.40
2018-11-12T22:50:19.623Z,69.60
2018-11-12T22:52:48.849Z,68.70
2018-11-12T22:55:18.444Z,68.60
2018-11-12T22:57:47.253Z,68.70
2018-11-12T23:00:26.019Z,68.70
2018-11-12T23:02:56.269Z,69.20
2018-11-12T23:05:24.933Z,68.20
2018-11-12T23:07:54.200Z,68.80
2018-11-12T23:10:23.114Z,68.80
2018-11-12T23:12:52.065Z,68.70
2018-11-12T23:15:21.119Z,68.60
2018-11-12T23:17:49.675Z,68.00
2018-11-12T23:20:20.507Z,67.70
2018-11-12T23:22:49.389Z,67.90
2018-11-12T23:25:18.691Z,67.90
2018-11-12T23:27:47.956Z,67.90
2018-11-12T23:30:18.076Z,67.90
2018-11-12T23:32:47.233Z,67.40
2018-11-12T23:35:17.834Z,67.90
2018-11-12T23:37:47.536Z,67.30
2018-11-12T23:40:16.447Z,67.40
2018-11-12T23:42:46.260Z,68.00
2018-11-12T23:45:16.065Z,66.60
2018-11-12T23:47:45.803Z,67.20
2018-11-12T23:50:18.006Z,65.30
2018-11-12T23:52:47.788Z,65.90
2018-11-12T23:55:18.314Z,64.80
2018-11-12T23:57:48.323Z,65.20
